Airfield :







YOU CAN JOIN US ON...

 
LOGIN :

Register | Disclaimer

   EN    FR    IT 

 









Legend :    VFR   Marginal VFR   IFR   Intensive IFR   Very Intensive IFR
Visi :
Ceiling :
>= 8 km
>= 3000ft
5 to 8 km
1000 to 3000 ft
1500m to 5 km
500 to 1000 ft
800 to 1500m
200 to 500 ft
< 800m
< 200 ft
Symbols :   Thunderstorms  Fog  Heavy snow  Heavy precipitations  Wind > 20 kt






- Airport Elevation : 545 ft


KLCI - Laconia Municipal

CURRENT METAR :
  • 271429Z AUTO 08020KT 1 1/4SM -RA BR SCT012 BKN019 OVC050 03/03 A2922 RMK AO2 PK WND 08033/1406 PRESFR P0008

EXPIRED METARs :
  • 271410Z AUTO 08023G33KT 1SM -RA BR BKN011 OVC050 04/03 A2924 RMK AO2 PK WND 08033/1406 P0003
  • 271356Z AUTO 10020G36KT 2 1/2SM -RA BR OVC011 04/03 A2925 RMK AO2 PK WND 07039/1338 VIS 1 3/4V4 PRESRR SLP907 P0009 T00390033
  • 271322Z AUTO 08025G33KT 3SM -RA BR SCT008 BKN012 OVC018 04/03 A2926 RMK AO2 PK WND 09033/1319 P0007
  • 271319Z AUTO 08027G33KT 2 1/2SM -RA BR SCT008 BKN015 OVC022 04/03 A2926 RMK AO2 PK WND 09033/1319 VIS 2V5 P0006
  • 271308Z AUTO 08024G31KT 1SM -RA BR SCT008 BKN013 OVC024 03/03 A2928 RMK AO2 PK WND 09031/1308 PRESFR P0005
  • 271256Z AUTO 07023G29KT 1SM -RA BR SCT011 BKN016 OVC049 03/03 A2931 RMK AO2 PK WND 07032/1238 UPE00RAB00 SLP929 P0019 T00330028
  • 271231Z AUTO 07022G31KT 1 1/4SM -RA BR BKN009 BKN015 OVC025 03/03 A2935 RMK AO2 PK WND 08031/1228 UPE00RAB00 CIG 007V012 P0009
  • 271217Z AUTO 07022G29KT 2SM -RA BR BKN009 OVC013 03/03 A2936 RMK AO2 PK WND 08029/1216 UPE00RAB00 CIG 007V011 P0004
  • 271156Z AUTO 07019G26KT 1 1/2SM UP BR OVC009 03/02 A2938 RMK AO2 PK WND 07026/1156 CIG 007V011 SLP954 P0012 60038 70038 T00280022 10028 20017 58062

TAF N/A



MET'MAP, your aeronautical weather chart ! - Copyright ORBIFLY December 2007 - Disclaimer

ORBIFLY MET'MAP TEAM :

Programming & Development : Alexandra Zaïnal
Concept & original design : Baudouin d'Aumeries
Assistance for programming : Marc-Olivier Méhu
Technical & hardware support : Manuel Goepfert

Contact : metmap@orbifly.com




SOURCES & CREDITS :

   NOAA